Time;durP1;ratioP1;P1;durP2;ratioP2;P2;SDS_P1;SDS_P2;PMS_P1;PMS_P2;Temp;Humidity;BMP_temperature;BMP_pressure;BME280_temperature;BME280_humidity;BME280_pressure;Samples;Min_cycle;Max_cycle;Signal;HPM_P1;HPM_P2
2023/09/01 00:01:03;;;;;;;15.57;3.40;;;;;;;14.77;100.00;100431.53;1457371;89;21449;-77
2023/09/01 00:03:29;;;;;;;16.83;3.83;;;;;;;14.78;100.00;100433.19;1460677;89;22299;-77
2023/09/01 00:05:58;;;;;;;19.47;3.60;;;;;;;14.81;100.00;100438.67;1461647;89;21540;-77
2023/09/01 00:08:25;;;;;;;6.77;2.60;;;;;;;14.81;100.00;100444.00;1465727;89;22372;-78
2023/09/01 00:10:51;;;;;;;6.10;2.13;;;;;;;14.81;100.00;100440.83;1443036;89;21559;-78
2023/09/01 00:13:17;;;;;;;9.97;2.37;;;;;;;14.82;100.00;100447.84;1436597;89;21347;-77
2023/09/01 00:15:43;;;;;;;5.60;2.00;;;;;;;14.81;100.00;100442.67;1463022;89;21411;-78
2023/09/01 00:18:10;;;;;;;9.30;2.23;;;;;;;14.79;100.00;100442.86;1435488;89;21599;-78
2023/09/01 00:20:37;;;;;;;7.90;2.03;;;;;;;14.76;100.00;100447.69;1458507;89;21511;-78
2023/09/01 00:23:03;;;;;;;13.50;2.07;;;;;;;14.74;100.00;100441.72;1460242;89;21397;-78
2023/09/01 00:25:31;;;;;;;6.13;2.07;;;;;;;14.70;100.00;100445.21;1465484;89;21331;-78
2023/09/01 00:27:57;;;;;;;7.97;1.50;;;;;;;14.68;100.00;100455.23;1455142;89;22232;-78
2023/09/01 00:30:23;;;;;;;2.30;1.80;;;;;;;14.66;100.00;100449.23;1466511;89;21508;-78
2023/09/01 00:32:49;;;;;;;2.60;1.87;;;;;;;14.63;100.00;100453.59;1437482;89;21588;-78
2023/09/01 00:35:15;;;;;;;3.23;1.90;;;;;;;14.63;100.00;100448.25;1469836;89;21456;-78
2023/09/01 00:37:41;;;;;;;3.20;2.17;;;;;;;14.66;100.00;100437.25;1463577;89;21552;-79
2023/09/01 00:40:09;;;;;;;10.43;1.73;;;;;;;14.66;100.00;100443.91;1459663;89;21389;-77
2023/09/01 00:42:35;;;;;;;11.80;2.17;;;;;;;14.63;100.00;100440.27;1464069;89;21359;-77
2023/09/01 00:45:01;;;;;;;7.27;1.77;;;;;;;14.62;100.00;100454.59;1464735;89;21519;-77
2023/09/01 00:47:27;;;;;;;9.70;1.90;;;;;;;14.67;100.00;100452.22;1464786;89;21434;-76
2023/09/01 00:49:54;;;;;;;6.30;1.70;;;;;;;14.71;100.00;100452.73;1461477;89;22517;-76
2023/09/01 00:52:20;;;;;;;5.20;1.80;;;;;;;14.73;100.00;100454.22;1465213;89;21507;-78
2023/09/01 00:54:46;;;;;;;7.93;1.47;;;;;;;14.72;100.00;100441.88;1461435;89;21583;-79
2023/09/01 00:57:12;;;;;;;6.43;1.83;;;;;;;14.73;100.00;100446.22;1461409;89;21382;-79
2023/09/01 00:59:39;;;;;;;14.47;2.00;;;;;;;14.74;100.00;100447.05;1459340;89;21516;-79
2023/09/01 01:02:05;;;;;;;10.40;1.50;;;;;;;14.72;100.00;100451.20;1440960;89;21414;-78
2023/09/01 01:04:33;;;;;;;4.60;1.77;;;;;;;14.74;100.00;100455.87;1458493;89;21456;-79
2023/09/01 01:07:08;;;;;;;1.43;1.30;;;;;;;14.70;100.00;100455.87;1459257;89;21604;-79
2023/09/01 01:09:51;;;;;;;1.43;1.33;;;;;;;14.66;100.00;100463.89;1471285;89;21522;-78
2023/09/01 01:12:34;;;;;;;3.03;1.20;;;;;;;14.60;100.00;100460.08;1464615;89;21574;-76
2023/09/01 01:15:09;;;;;;;1.80;1.47;;;;;;;14.57;100.00;100459.09;1467304;89;21426;-77
2023/09/01 01:17:36;;;;;;;1.30;1.20;;;;;;;14.56;100.00;100461.95;1457576;89;21522;-77
2023/09/01 01:20:36;;;;;;;2.67;1.10;;;;;;;14.50;100.00;100462.58;1460452;89;22277;-76
2023/09/01 01:23:17;;;;;;;11.20;1.20;;;;;;;14.46;100.00;100454.11;1460233;89;21382;-79
2023/09/01 01:25:47;;;;;;;2.45;1.02;;;;;;;14.40;100.00;100447.64;1473518;89;21479;-79
2023/09/01 01:28:14;;;;;;;;;;;;;;;14.38;100.00;100448.31;1458726;89;21522;-79
2023/09/01 01:30:40;;;;;;;17.60;1.87;;;;;;;14.34;100.00;100449.66;1464098;89;20842;-79
2023/09/01 01:33:28;;;;;;;8.33;1.53;;;;;;;14.35;100.00;100449.98;1467916;89;21440;-78
2023/09/01 01:36:06;;;;;;;6.60;1.30;;;;;;;14.36;100.00;100453.00;1447885;89;21494;-79
2023/09/01 01:38:36;;;;;;;14.67;1.50;;;;;;;14.42;100.00;100448.31;1463692;89;22550;-78
2023/09/01 01:41:17;;;;;;;11.80;1.75;;;;;;;14.47;100.00;100453.10;1454202;89;21441;-79
2023/09/01 01:43:45;;;;;;;5.55;1.42;;;;;;;14.49;100.00;100454.27;1459763;89;22404;-79
2023/09/01 01:46:13;;;;;;;9.97;1.80;;;;;;;14.51;100.00;100452.28;1468118;89;21522;-78
2023/09/01 01:48:39;;;;;;;8.60;1.30;;;;;;;14.52;100.00;100452.12;1435632;89;21546;-79
2023/09/01 01:51:06;;;;;;;6.37;1.30;;;;;;;14.54;100.00;100447.97;1466553;89;21420;-79
2023/09/01 01:53:37;;;;;;;4.17;1.33;;;;;;;14.55;100.00;100445.62;1464654;89;21353;-79
2023/09/01 01:56:08;;;;;;;8.93;1.37;;;;;;;14.56;100.00;100449.97;1469665;89;21582;-79
2023/09/01 01:58:32;;;;;;;12.53;1.87;;;;;;;14.57;100.00;100454.28;1463899;89;21426;-79
2023/09/01 02:00:59;;;;;;;5.43;1.40;;;;;;;14.57;100.00;100452.95;1459250;89;21427;-79
2023/09/01 02:03:25;;;;;;;14.20;1.90;;;;;;;14.55;100.00;100453.61;1464768;89;21383;-78
2023/09/01 02:05:51;;;;;;;16.90;1.77;;;;;;;14.54;100.00;100450.63;1457117;89;21338;-78
2023/09/01 02:08:17;;;;;;;24.67;2.00;;;;;;;14.55;100.00;100457.10;1458203;89;22307;-79
2023/09/01 02:10:43;;;;;;;4.13;1.60;;;;;;;14.54;100.00;100460.78;1466085;89;21404;-79
2023/09/01 02:13:10;;;;;;;5.60;1.73;;;;;;;14.54;100.00;100456.78;1463499;89;21519;-79
2023/09/01 02:15:36;;;;;;;5.77;1.60;;;;;;;14.54;100.00;100456.78;1447458;89;21465;-79
2023/09/01 02:18:08;;;;;;;2.30;1.90;;;;;;;14.53;100.00;100454.28;1440407;89;21463;-79
2023/09/01 02:20:37;;;;;;;2.23;1.57;;;;;;;14.52;100.00;100452.62;1460265;89;22425;-78
2023/09/01 02:23:04;;;;;;;5.90;1.57;;;;;;;14.49;100.00;100452.94;1438015;89;21376;-78
2023/09/01 02:25:37;;;;;;;6.70;1.77;;;;;;;14.50;100.00;100453.27;1459985;89;21655;-76
2023/09/01 02:28:06;;;;;;;2.23;2.03;;;;;;;14.49;100.00;100456.94;1460371;89;21289;-74
2023/09/01 02:30:32;;;;;;;7.27;1.70;;;;;;;14.49;100.00;100466.26;1465372;89;21457;-74
2023/09/01 02:32:59;;;;;;;16.00;1.97;;;;;;;14.49;100.00;100474.25;1457853;89;22484;-74
2023/09/01 02:35:25;;;;;;;15.40;4.03;;;;;;;14.49;100.00;100470.25;1461375;89;21404;-76
2023/09/01 02:37:51;;;;;;;14.40;3.87;;;;;;;14.47;100.00;100473.58;1460118;89;21526;-77
2023/09/01 02:40:18;;;;;;;15.97;3.97;;;;;;;14.43;100.00;100469.93;1460725;89;21407;-76
2023/09/01 02:42:44;;;;;;;14.53;3.70;;;;;;;14.40;100.00;100470.27;1469479;89;21375;-76
2023/09/01 02:45:14;;;;;;;7.77;3.33;;;;;;;14.39;100.00;100467.30;1458171;89;21411;-76
2023/09/01 02:47:40;;;;;;;15.40;3.52;;;;;;;14.40;100.00;100462.80;1462020;89;22248;-76
2023/09/01 02:50:08;;;;;;;7.20;3.00;;;;;;;14.44;100.00;100463.63;1459654;89;21962;-75
2023/09/01 02:52:34;;;;;;;7.53;3.17;;;;;;;14.45;100.00;100464.45;1466301;89;21441;-76
2023/09/01 02:55:00;;;;;;;14.70;3.20;;;;;;;14.47;100.00;100466.92;1460161;89;21537;-76
2023/09/01 02:57:26;;;;;;;26.03;3.10;;;;;;;14.45;100.00;100465.78;1447624;88;21346;-76
2023/09/01 02:59:53;;;;;;;14.77;3.27;;;;;;;14.43;100.00;100464.61;1461180;89;21353;-78
2023/09/01 03:02:20;;;;;;;6.13;3.37;;;;;;;14.41;100.00;100463.97;1458158;89;21567;-79
2023/09/01 03:04:52;;;;;;;6.37;2.87;;;;;;;14.38;100.00;100464.79;1447840;89;21403;-79
2023/09/01 03:07:19;;;;;;;7.70;3.40;;;;;;;14.36;100.00;100457.50;1464154;89;21353;-77
2023/09/01 03:09:45;;;;;;;7.47;3.07;;;;;;;14.34;100.00;100458.16;1459017;89;22505;-76
2023/09/01 03:12:11;;;;;;;4.43;3.47;;;;;;;14.32;100.00;100459.65;1464781;89;22281;-76
2023/09/01 03:14:37;;;;;;;4.37;3.37;;;;;;;14.32;100.00;100459.65;1466365;89;21517;-77
2023/09/01 03:17:07;;;;;;;6.03;4.40;;;;;;;14.33;100.00;100463.16;1463724;89;21547;-76
2023/09/01 03:19:33;;;;;;;4.30;3.20;;;;;;;14.31;100.00;100472.64;1459148;89;21611;-77
2023/09/01 03:21:59;;;;;;;8.50;3.33;;;;;;;14.29;100.00;100474.63;1441583;89;21346;-75
2023/09/01 03:24:26;;;;;;;7.90;3.63;;;;;;;14.28;100.00;100483.63;1472958;89;21367;-77
2023/09/01 03:26:52;;;;;;;9.03;3.20;;;;;;;14.24;100.00;100480.95;1458371;89;21331;-77
2023/09/01 03:29:18;;;;;;;12.00;3.33;;;;;;;14.21;100.00;100486.62;1462311;89;21581;-77
2023/09/01 03:31:44;;;;;;;19.80;3.70;;;;;;;14.18;100.00;100498.94;1467242;89;22015;-76
2023/09/01 03:34:11;;;;;;;4.80;3.27;;;;;;;14.13;100.00;100490.16;1468690;89;21521;-76
2023/09/01 03:36:37;;;;;;;8.30;3.93;;;;;;;14.11;100.00;100495.31;1464754;89;21892;-77
2023/09/01 03:39:07;;;;;;;5.13;3.67;;;;;;;14.10;100.00;100493.16;1458749;89;21383;-76
2023/09/01 03:41:32;;;;;;;7.70;2.83;;;;;;;14.12;100.00;100503.62;1463291;89;21457;-76
2023/09/01 03:43:58;;;;;;;4.83;3.87;;;;;;;14.11;100.00;100501.45;1472214;89;22477;-76
2023/09/01 03:46:24;;;;;;;9.97;3.10;;;;;;;14.11;100.00;100493.98;1464578;89;21331;-76
2023/09/01 03:48:50;;;;;;;5.73;2.63;;;;;;;14.10;100.00;100492.33;1454629;89;21596;-76
2023/09/01 03:51:17;;;;;;;7.53;2.63;;;;;;;14.10;100.00;100485.68;1435233;89;21382;-76
2023/09/01 03:53:47;;;;;;;9.40;2.70;;;;;;;14.09;100.00;100485.33;1463299;89;21669;-76
2023/09/01 03:56:16;;;;;;;3.53;2.73;;;;;;;14.09;100.00;100499.46;1432074;89;21456;-76
2023/09/01 03:58:43;;;;;;;7.27;2.93;;;;;;;14.11;100.00;100497.97;1462486;89;21375;-76
2023/09/01 04:01:14;;;;;;;10.47;3.17;;;;;;;14.12;100.00;100499.13;1456872;89;21367;-78
2023/09/01 04:03:45;;;;;;;6.92;3.25;;;;;;;14.16;100.00;100499.13;1462368;89;21352;-79
2023/09/01 04:06:15;;;;;;;6.73;4.53;;;;;;;14.20;100.00;100496.45;1462360;89;21353;-79
2023/09/01 04:08:41;;;;;;;8.47;3.53;;;;;;;14.23;100.00;100501.43;1461848;89;21397;-79
2023/09/01 04:11:07;;;;;;;9.93;3.90;;;;;;;14.25;100.00;100491.13;1461384;89;22485;-77
2023/09/01 04:13:34;;;;;;;21.77;4.07;;;;;;;14.28;100.00;100496.12;1459723;89;21493;-75
2023/09/01 04:16:01;;;;;;;10.23;2.97;;;;;;;14.30;100.00;100496.75;1459989;89;21382;-79
2023/09/01 04:18:27;;;;;;;12.73;3.20;;;;;;;14.33;100.00;100497.27;1466148;89;21567;-78
2023/09/01 04:20:54;;;;;;;9.47;3.07;;;;;;;14.39;100.00;100500.58;1439138;89;21367;-78
2023/09/01 04:23:21;;;;;;;6.87;2.83;;;;;;;14.47;100.00;100497.55;1460264;89;22321;-78
2023/09/01 04:25:49;;;;;;;6.03;2.93;;;;;;;14.47;100.00;100497.55;1462525;89;21516;-78
2023/09/01 04:28:17;;;;;;;2.57;2.20;;;;;;;14.49;100.00;100494.22;1464326;89;21485;-78
2023/09/01 04:30:44;;;;;;;7.70;2.93;;;;;;;14.48;100.00;100498.72;1459678;89;21353;-77
2023/09/01 04:33:12;;;;;;;6.60;2.87;;;;;;;14.49;100.00;100506.20;1456812;89;21581;-77
2023/09/01 04:35:39;;;;;;;7.17;3.57;;;;;;;14.43;100.00;100501.88;1470443;89;21538;-78
2023/09/01 04:38:06;;;;;;;4.70;3.20;;;;;;;14.41;100.00;100505.24;1458809;88;21641;-77
2023/09/01 04:40:32;;;;;;;3.57;2.57;;;;;;;14.40;100.00;100510.22;1460639;89;21420;-77
2023/09/01 04:42:58;;;;;;;2.60;2.40;;;;;;;14.38;100.00;100511.38;1457695;89;21382;-78
2023/09/01 04:45:25;;;;;;;2.50;2.30;;;;;;;14.36;100.00;100514.23;1439576;89;22649;-77
2023/09/01 04:47:52;;;;;;;4.43;2.10;;;;;;;14.38;100.00;100514.05;1468859;89;21404;-76
2023/09/01 04:50:19;;;;;;;3.07;2.67;;;;;;;14.39;100.00;100517.88;1463046;89;21323;-77
2023/09/01 04:52:45;;;;;;;4.57;2.80;;;;;;;14.41;100.00;100515.89;1457165;89;21581;-78
2023/09/01 04:55:12;;;;;;;7.03;3.33;;;;;;;14.43;100.00;100521.03;1464181;89;22049;-77
2023/09/01 04:57:38;;;;;;;4.67;3.40;;;;;;;14.45;100.00;100521.19;1440354;89;21352;-77
2023/09/01 05:00:15;;;;;;;2.77;2.50;;;;;;;14.48;100.00;100523.19;1459214;89;21294;-77
2023/09/01 05:02:37;;;;;;;5.30;4.20;;;;;;;14.52;100.00;100528.02;1466076;89;21534;-77
2023/09/01 05:05:05;;;;;;;5.67;3.37;;;;;;;14.55;100.00;100530.84;1462500;89;21457;-78
2023/09/01 05:07:31;;;;;;;3.00;2.33;;;;;;;14.62;100.00;100539.83;1463872;89;21384;-77
2023/09/01 05:09:58;;;;;;;5.27;2.60;;;;;;;14.70;100.00;100550.94;1460928;89;21389;-77
2023/09/01 05:12:24;;;;;;;5.20;2.60;;;;;;;14.76;100.00;100552.44;1461264;89;21511;-76
2023/09/01 05:14:50;;;;;;;8.87;2.33;;;;;;;14.76;100.00;100552.44;1461375;89;22351;-76
2023/09/01 05:17:16;;;;;;;3.77;2.57;;;;;;;14.77;100.00;100562.59;1456572;89;21556;-75
2023/09/01 05:19:42;;;;;;;3.60;3.30;;;;;;;14.75;100.00;100578.73;1465021;89;21889;-75
2023/09/01 05:22:09;;;;;;;7.53;3.90;;;;;;;14.72;100.00;100575.08;1459968;89;22240;-76
2023/09/01 05:24:35;;;;;;;6.67;3.67;;;;;;;14.73;100.00;100576.77;1460086;89;21538;-75
2023/09/01 05:27:01;;;;;;;6.53;3.33;;;;;;;14.74;100.00;100578.41;1467688;89;21390;-77
2023/09/01 05:29:30;;;;;;;8.50;3.87;;;;;;;14.77;100.00;100582.06;1458486;89;21375;-77
2023/09/01 05:31:55;;;;;;;5.57;4.03;;;;;;;14.81;100.00;100579.37;1456225;89;21471;-76
2023/09/01 05:34:21;;;;;;;3.73;2.93;;;;;;;14.91;100.00;100582.37;1468018;89;21425;-82
2023/09/01 05:36:48;;;;;;;4.93;3.67;;;;;;;14.99;100.00;100588.50;1460846;89;21664;-81
2023/09/01 05:39:14;;;;;;;3.50;2.90;;;;;;;15.11;100.00;100595.61;1468083;89;22262;-83
2023/09/01 05:41:40;;;;;;;5.47;3.80;;;;;;;15.24;100.00;100582.53;1472557;89;21694;-80
2023/09/01 05:44:07;;;;;;;7.77;3.30;;;;;;;15.35;100.00;100584.81;1461280;89;21630;-78
2023/09/01 05:46:33;;;;;;;6.00;3.20;;;;;;;15.44;100.00;100592.78;1459347;89;21508;-80
2023/09/01 05:48:59;;;;;;;12.80;3.93;;;;;;;15.46;100.00;100590.77;1459070;89;21603;-78
2023/09/01 05:51:26;;;;;;;10.77;4.53;;;;;;;15.48;100.00;100595.44;1458927;89;21626;-81
2023/09/01 05:53:52;;;;;;;6.80;4.00;;;;;;;15.55;100.00;100592.38;1461603;89;21404;-80
2023/09/01 05:56:18;;;;;;;10.53;4.27;;;;;;;15.64;100.00;100604.66;1465979;89;21553;-80
2023/09/01 05:58:44;;;;;;;7.97;4.37;;;;;;;15.75;100.00;100599.45;1463958;89;22373;-81
2023/09/01 06:01:10;;;;;;;6.67;5.37;;;;;;;15.85;100.00;100597.88;1464344;89;21441;-81
2023/09/01 06:03:37;;;;;;;11.70;5.60;;;;;;;15.94;100.00;100599.47;1441981;89;21404;-81
2023/09/01 06:06:03;;;;;;;6.13;5.53;;;;;;;15.98;100.00;100600.80;1456801;89;21353;-81
2023/09/01 06:12:18;;;;;;;9.80;6.83;;;;;;;16.06;100.00;100607.41;1452738;89;21486;-80
2023/09/01 06:14:44;;;;;;;9.20;5.60;;;;;;;16.14;100.00;100608.69;1445595;89;21360;-80
2023/09/01 06:17:10;;;;;;;8.57;5.63;;;;;;;16.24;100.00;100607.09;1442759;89;21389;-80
2023/09/01 06:19:37;;;;;;;6.30;4.90;;;;;;;16.31;100.00;100604.01;1466977;89;21523;-80
2023/09/01 06:22:03;;;;;;;6.20;5.53;;;;;;;16.32;100.00;100610.20;1468663;89;21368;-79
2023/09/01 06:24:30;;;;;;;6.67;5.33;;;;;;;16.27;100.00;100603.23;1455235;89;21507;-77
2023/09/01 06:26:57;;;;;;;7.97;4.50;;;;;;;16.34;100.00;100603.67;1472310;89;21375;-80
2023/09/01 06:29:23;;;;;;;10.27;5.73;;;;;;;16.43;100.00;100602.58;1461338;89;21375;-80
2023/09/01 06:31:49;;;;;;;9.23;5.67;;;;;;;16.55;100.00;100601.62;1437940;89;21560;-79
2023/09/01 06:34:15;;;;;;;11.77;5.67;;;;;;;16.74;100.00;100591.41;1448810;89;21472;-79
2023/09/01 06:36:41;;;;;;;8.40;6.67;;;;;;;16.94;100.00;100593.88;1465477;89;21556;-79
2023/09/01 06:39:08;;;;;;;9.40;7.45;;;;;;;17.16;100.00;100607.34;1458978;89;21309;-78
2023/09/01 06:41:34;;;;;;;11.08;6.45;;;;;;;17.32;100.00;100602.61;1463386;89;21524;-79
2023/09/01 06:44:00;;;;;;;14.13;7.00;;;;;;;17.42;100.00;100600.97;1468139;89;21360;-79
2023/09/01 06:46:26;;;;;;;10.88;6.67;;;;;;;17.52;100.00;100594.82;1454554;89;21515;-79
2023/09/01 06:48:52;;;;;;;6.95;5.85;;;;;;;17.66;100.00;100593.61;1465392;89;22292;-76
2023/09/01 06:51:19;;;;;;;7.42;5.62;;;;;;;17.85;100.00;100601.05;1466610;89;21389;-78
2023/09/01 06:53:45;;;;;;;8.15;6.20;;;;;;;18.03;100.00;100607.29;1465162;89;21603;-79
2023/09/01 06:56:11;;;;;;;12.35;8.63;;;;;;;18.24;100.00;100607.77;1462419;89;21375;-79
2023/09/01 06:58:37;;;;;;;15.58;8.28;;;;;;;18.51;100.00;100599.97;1456757;89;21434;-78
2023/09/01 07:01:10;;;;;;;11.12;7.00;;;;;;;18.65;100.00;100601.71;1477258;89;22421;-77
2023/09/01 07:03:36;;;;;;;12.18;6.70;;;;;;;18.75;100.00;100610.25;1461860;89;22255;-78
2023/09/01 07:06:04;;;;;;;13.10;7.85;;;;;;;18.86;100.00;100611.04;1469303;89;21575;-78
2023/09/01 07:08:31;;;;;;;10.88;7.40;;;;;;;18.98;100.00;100622.55;1468912;89;21383;-79
2023/09/01 07:11:03;;;;;;;12.43;7.37;;;;;;;19.03;100.00;100618.77;1461653;89;21571;-79
2023/09/01 07:13:31;;;;;;;12.20;6.08;;;;;;;19.14;100.00;100619.55;1462843;89;21434;-78
2023/09/01 07:15:57;;;;;;;12.25;6.83;;;;;;;19.20;100.00;100632.69;1465811;89;22320;-80
2023/09/01 07:18:25;;;;;;;9.45;5.22;;;;;;;19.32;100.00;100623.86;1442307;89;21331;-78
2023/09/01 07:20:54;;;;;;;8.75;5.55;;;;;;;19.41;100.00;100633.91;1464100;89;21530;-80
2023/09/01 07:23:20;;;;;;;10.15;6.53;;;;;;;19.52;100.00;100633.84;1444218;89;21434;-78
2023/09/01 07:25:46;;;;;;;13.55;6.45;;;;;;;19.62;100.00;100640.98;1459916;89;21449;-80
2023/09/01 07:28:13;;;;;;;7.85;5.85;;;;;;;19.63;100.00;100646.69;1458901;89;21589;-79
2023/09/01 07:30:40;;;;;;;7.00;5.20;;;;;;;19.62;100.00;100640.98;1458321;89;21495;-78
2023/09/01 07:33:06;;;;;;;8.58;5.17;;;;;;;19.37;100.00;100622.75;1444594;89;21462;-80
2023/09/01 07:35:32;;;;;;;8.50;5.97;;;;;;;19.37;100.00;100622.75;1465602;89;21449;-80
2023/09/01 07:37:59;;;;;;;8.30;5.08;;;;;;;19.42;100.00;100636.06;1459765;89;22290;-80
2023/09/01 07:40:26;;;;;;;9.53;5.00;;;;;;;19.59;100.00;100638.70;1467271;89;21436;-80
2023/09/01 07:42:52;;;;;;;11.80;7.15;;;;;;;19.82;100.00;100641.94;1464594;89;22306;-79
2023/09/01 07:45:18;;;;;;;8.55;5.03;;;;;;;20.27;100.00;100648.90;1418372;89;21483;-80
2023/09/01 07:47:45;;;;;;;10.88;5.50;;;;;;;20.27;100.00;100648.90;1456335;89;21982;-80
2023/09/01 07:50:11;;;;;;;9.98;4.62;;;;;;;20.34;100.00;100658.83;1462955;89;21500;-79
2023/09/01 07:52:37;;;;;;;14.25;5.17;;;;;;;20.34;100.00;100655.64;1464874;89;21397;-80
2023/09/01 07:55:05;;;;;;;8.38;4.55;;;;;;;20.45;100.00;100662.24;1465088;89;21375;-80
2023/09/01 07:57:32;;;;;;;7.87;5.22;;;;;;;20.53;100.00;100659.91;1465701;89;21367;-80
2023/09/01 07:59:58;;;;;;;10.38;4.70;;;;;;;20.61;100.00;100657.83;1435067;89;22254;-80
2023/09/01 08:02:24;;;;;;;7.10;4.53;;;;;;;20.77;100.00;100658.42;1466018;89;21360;-80
2023/09/01 08:04:51;;;;;;;6.30;4.03;;;;;;;20.91;100.00;100654.68;1463302;89;21526;-80
2023/09/01 08:07:17;;;;;;;7.80;3.70;;;;;;;21.03;100.00;100653.02;1439861;89;22488;-80
2023/09/01 08:09:46;;;;;;;7.40;3.15;;;;;;;21.09;100.00;100647.28;1469815;89;21449;-80
2023/09/01 08:12:12;;;;;;;5.28;3.60;;;;;;;21.23;100.00;100650.77;1468572;89;21471;-79
2023/09/01 08:14:38;;;;;;;5.75;2.87;;;;;;;21.38;100.00;100650.04;1461357;89;21433;-80
2023/09/01 08:17:04;;;;;;;12.98;3.17;;;;;;;21.55;100.00;100659.78;1453939;89;21337;-79
2023/09/01 08:19:30;;;;;;;5.28;2.80;;;;;;;21.75;100.00;100661.03;1461942;89;21530;-80
2023/09/01 08:21:57;;;;;;;5.12;2.80;;;;;;;21.95;100.00;100664.47;1461924;89;22388;-79
2023/09/01 08:24:24;;;;;;;6.47;3.00;;;;;;;22.12;100.00;100659.88;1460930;89;21367;-79
2023/09/01 08:26:50;;;;;;;4.47;2.27;;;;;;;22.23;100.00;100661.91;1469382;89;21548;-79
2023/09/01 08:29:16;;;;;;;3.45;2.22;;;;;;;22.17;100.00;100667.65;1454857;89;21382;-80
2023/09/01 08:31:43;;;;;;;4.05;2.83;;;;;;;22.14;100.00;100660.50;1459486;89;21427;-80
2023/09/01 08:34:10;;;;;;;4.50;2.55;;;;;;;22.26;100.00;100657.42;1464407;89;22524;-79
2023/09/01 08:36:38;;;;;;;8.10;2.22;;;;;;;22.44;100.00;100659.35;1468289;89;21471;-80
2023/09/01 08:39:07;;;;;;;3.95;2.55;;;;;;;22.64;100.00;100661.88;1459441;89;22418;-80
2023/09/01 08:41:34;;;;;;;5.30;2.40;;;;;;;22.79;100.00;100663.73;1468712;89;21309;-79
2023/09/01 08:44:06;;;;;;;3.08;2.10;;;;;;;22.87;100.00;100667.49;1457564;89;21501;-79
2023/09/01 08:46:33;;;;;;;4.50;2.77;;;;;;;22.95;100.00;100668.56;1440842;89;21360;-78
2023/09/01 08:49:00;;;;;;;10.48;2.37;;;;;;;22.96;100.00;100670.76;1464470;89;22254;-78
2023/09/01 08:51:27;;;;;;;3.58;2.52;;;;;;;22.94;100.00;100673.63;1467118;89;21338;-79
2023/09/01 08:53:53;;;;;;;3.70;2.77;;;;;;;22.93;100.00;100679.23;1435875;89;21434;-79
2023/09/01 08:56:20;;;;;;;5.92;2.50;;;;;;;22.97;100.00;100684.02;1459608;89;21681;-79
2023/09/01 08:58:46;;;;;;;3.92;2.05;;;;;;;23.04;100.00;100685.81;1437979;89;22284;-79
2023/09/01 09:01:13;;;;;;;6.55;2.37;;;;;;;23.15;100.00;100681.03;1467229;89;21338;-79
2023/09/01 09:03:40;;;;;;;5.22;2.05;;;;;;;23.27;100.00;100684.63;1458991;89;21541;-80
2023/09/01 09:06:06;;;;;;;3.67;1.87;;;;;;;23.35;99.43;100687.02;1465222;89;22291;-79
2023/09/01 09:08:34;;;;;;;3.33;2.25;;;;;;;23.46;99.40;100689.50;1457597;89;21383;-80
2023/09/01 09:11:03;;;;;;;6.85;2.75;;;;;;;23.59;98.72;100684.45;1461639;89;21404;-79
2023/09/01 09:13:31;;;;;;;3.85;1.80;;;;;;;23.82;99.40;100685.97;1456729;89;21455;-79
2023/09/01 09:16:14;;;;;;;3.37;2.27;;;;;;;24.01;96.08;100683.20;1461104;89;22926;-80
2023/09/01 09:18:47;;;;;;;5.42;2.00;;;;;;;24.06;84.15;100686.05;1469538;89;22313;-80
2023/09/01 09:21:30;;;;;;;4.20;2.15;;;;;;;24.21;82.21;100683.72;1462263;89;21330;-80
2023/09/01 09:24:07;;;;;;;4.72;2.17;;;;;;;24.27;81.83;100685.50;1469788;89;21420;-76
2023/09/01 09:26:32;;;;;;;4.37;1.92;;;;;;;24.27;81.12;100680.09;1464108;89;21411;-77
2023/09/01 09:29:11;;;;;;;3.65;1.65;;;;;;;24.24;82.84;100684.61;1458360;89;22411;-77
2023/09/01 09:31:44;;;;;;;3.10;1.87;;;;;;;24.16;82.71;100686.30;1464359;89;22462;-77
2023/09/01 09:34:19;;;;;;;3.27;2.02;;;;;;;24.08;81.97;100681.20;1462052;89;21441;-77
2023/09/01 09:36:47;;;;;;;3.02;1.62;;;;;;;24.05;84.28;100688.43;1461105;89;21531;-77
2023/09/01 09:39:26;;;;;;;2.45;2.12;;;;;;;24.00;81.20;100685.08;1460570;89;21375;-77
2023/09/01 09:41:56;;;;;;;3.02;1.50;;;;;;;24.01;81.29;100685.91;1458241;89;21412;-86
2023/09/01 09:44:33;;;;;;;3.55;1.62;;;;;;;24.01;80.65;100685.91;1460127;89;21352;-85
2023/09/01 09:47:03;;;;;;;4.33;1.67;;;;;;;24.03;80.35;100681.10;1437451;89;21976;-90
2023/09/01 09:49:32;;;;;;;4.55;1.77;;;;;;;24.07;78.64;100672.28;1462873;89;21626;-92
2023/09/01 09:52:00;;;;;;;2.80;1.73;;;;;;;24.16;79.70;100678.72;1457270;89;21383;-90
2023/09/01 09:54:29;;;;;;;2.33;1.55;;;;;;;24.16;67.65;100676.83;1440585;89;21427;-88
2023/09/01 09:57:00;;;;;;;3.58;1.60;;;;;;;24.20;67.05;100678.56;1449867;89;21375;-90
2023/09/01 09:59:34;;;;;;;4.22;2.12;;;;;;;24.27;67.42;100677.39;1460459;89;22307;-90
2023/09/01 10:02:06;;;;;;;2.55;1.67;;;;;;;24.35;66.92;100676.77;1465364;89;21582;-90
2023/09/01 10:04:35;;;;;;;4.30;1.75;;;;;;;24.38;66.23;100677.66;1470259;89;21552;-89
2023/09/01 10:07:02;;;;;;;3.62;2.08;;;;;;;24.44;66.50;100678.10;1466123;89;21375;-91
2023/09/01 10:09:31;;;;;;;4.85;2.20;;;;;;;24.53;66.59;100676.70;1470622;89;21581;-89
2023/09/01 10:11:59;;;;;;;2.20;1.67;;;;;;;24.67;67.26;100669.19;1466738;89;21353;-88
2023/09/01 10:14:29;;;;;;;2.98;1.72;;;;;;;24.81;65.52;100671.95;1466295;89;21663;-88
2023/09/01 10:16:58;;;;;;;2.65;1.75;;;;;;;24.93;65.85;100666.53;1472611;87;21397;-88
2023/09/01 10:19:26;;;;;;;5.07;2.07;;;;;;;25.12;64.59;100665.33;1438223;89;21478;-87
2023/09/01 10:21:53;;;;;;;3.00;1.62;;;;;;;25.27;64.83;100666.75;1462092;89;21738;-87
2023/09/01 10:24:20;;;;;;;5.80;1.47;;;;;;;25.28;64.29;100662.97;1462128;89;21367;-86
2023/09/01 10:27:08;;;;;;;3.12;1.65;;;;;;;25.28;63.56;100668.38;1468801;89;22561;-88
2023/09/01 10:29:34;;;;;;;3.98;1.57;;;;;;;25.30;63.39;100668.98;1431475;89;21353;-87
2023/09/01 10:32:20;;;;;;;3.20;1.52;;;;;;;25.26;62.40;100663.22;1431858;89;21411;-87
2023/09/01 10:34:54;;;;;;;3.52;1.72;;;;;;;25.16;58.59;100665.17;1463025;89;22328;-88
2023/09/01 10:37:27;;;;;;;3.92;2.35;;;;;;;25.31;61.37;100660.59;1466915;89;22313;-88
2023/09/01 10:39:57;;;;;;;2.37;1.70;;;;;;;25.46;52.54;100668.74;1461307;89;21375;-87
2023/09/01 10:42:48;;;;;;;;;;;;;;;25.43;52.21;100665.98;1466301;89;21373;-89
2023/09/01 10:45:14;;;;;;;2.85;1.25;;;;;;;25.33;51.60;100665.79;1465412;89;20315;-86
2023/09/01 10:47:48;;;;;;;2.50;1.80;;;;;;;25.20;52.59;100670.42;1455851;89;21375;-88
2023/09/01 10:50:16;;;;;;;4.80;1.72;;;;;;;25.05;52.51;100667.33;1463214;89;21553;-88
2023/09/01 10:52:44;;;;;;;7.97;1.98;;;;;;;25.00;53.83;100669.92;1436038;89;22343;-87
2023/09/01 10:55:11;;;;;;;3.55;1.65;;;;;;;25.02;53.82;100674.58;1437470;89;21619;-87
2023/09/01 10:57:46;;;;;;;3.20;1.80;;;;;;;25.14;52.83;100671.34;1458384;89;21456;-85
2023/09/01 11:00:31;;;;;;;2.22;1.52;;;;;;;25.31;52.14;100668.72;1456695;89;22201;-88
2023/09/01 11:03:31;;;;;;;4.03;1.65;;;;;;;25.48;52.26;100674.22;1461859;89;21403;-88
2023/09/01 11:05:59;;;;;;;3.42;2.02;;;;;;;25.58;51.89;100671.72;1461946;89;21339;-86
2023/09/01 11:08:25;;;;;;;2.77;1.60;;;;;;;25.74;52.47;100666.59;1462397;89;21537;-87
2023/09/01 11:11:00;;;;;;;2.83;1.70;;;;;;;25.77;51.52;100671.52;1471147;89;21426;-87
2023/09/01 11:13:25;;;;;;;4.35;1.70;;;;;;;25.76;52.13;100672.59;1461792;89;21412;-87
2023/09/01 11:15:52;;;;;;;3.42;1.98;;;;;;;25.75;52.02;100663.66;1464097;89;21345;-85
2023/09/01 11:18:22;;;;;;;6.40;1.92;;;;;;;25.77;51.63;100663.39;1436324;89;21389;-87
2023/09/01 11:20:53;;;;;;;;;;;;;;;25.94;52.64;100671.06;1466995;89;21496;-87
2023/09/01 11:23:21;;;;;;;4.95;1.67;;;;;;;26.09;51.94;100669.97;1457336;89;20902;-86
2023/09/01 11:25:56;;;;;;;2.25;1.60;;;;;;;26.08;48.36;100675.11;1445407;89;21595;-87